sensor_id;sensor_type;location;lat;lon;timestamp;P1;durP1;ratioP1;P2;durP2;ratioP2
20084;SDS011;10202;48.474;9.138;2023-04-25T00:01:21;4.03;;;3.35;;
20084;SDS011;10202;48.474;9.138;2023-04-25T00:03:47;5.47;;;2.88;;
20084;SDS011;10202;48.474;9.138;2023-04-25T00:06:19;3.15;;;2.45;;
20084;SDS011;10202;48.474;9.138;2023-04-25T00:08:54;5.78;;;2.85;;
20084;SDS011;10202;48.474;9.138;2023-04-25T00:11:20;5.22;;;2.90;;
20084;SDS011;10202;48.474;9.138;2023-04-25T00:13:48;4.10;;;2.65;;
20084;SDS011;10202;48.474;9.138;2023-04-25T00:16:18;5.15;;;2.83;;
20084;SDS011;10202;48.474;9.138;2023-04-25T00:18:46;5.10;;;2.85;;
20084;SDS011;10202;48.474;9.138;2023-04-25T00:21:16;7.22;;;3.45;;
20084;SDS011;10202;48.474;9.138;2023-04-25T00:23:47;3.92;;;3.17;;
20084;SDS011;10202;48.474;9.138;2023-04-25T00:26:14;5.63;;;3.40;;
20084;SDS011;10202;48.474;9.138;2023-04-25T00:28:40;4.45;;;2.92;;
20084;SDS011;10202;48.474;9.138;2023-04-25T00:31:10;4.32;;;3.10;;
20084;SDS011;10202;48.474;9.138;2023-04-25T00:33:36;5.00;;;3.42;;
20084;SDS011;10202;48.474;9.138;2023-04-25T00:36:04;6.55;;;3.70;;
20084;SDS011;10202;48.474;9.138;2023-04-25T00:38:32;6.72;;;3.67;;
20084;SDS011;10202;48.474;9.138;2023-04-25T00:41:00;7.38;;;3.55;;
20084;SDS011;10202;48.474;9.138;2023-04-25T00:43:26;5.10;;;3.25;;
20084;SDS011;10202;48.474;9.138;2023-04-25T00:45:52;5.20;;;3.35;;
20084;SDS011;10202;48.474;9.138;2023-04-25T00:48:23;7.82;;;3.28;;
20084;SDS011;10202;48.474;9.138;2023-04-25T00:50:52;3.78;;;3.00;;
20084;SDS011;10202;48.474;9.138;2023-04-25T00:53:22;8.70;;;3.45;;
20084;SDS011;10202;48.474;9.138;2023-04-25T00:55:53;6.53;;;3.10;;
20084;SDS011;10202;48.474;9.138;2023-04-25T00:58:20;5.35;;;3.10;;
20084;SDS011;10202;48.474;9.138;2023-04-25T01:00:49;7.40;;;3.25;;
20084;SDS011;10202;48.474;9.138;2023-04-25T01:03:17;5.57;;;3.22;;
20084;SDS011;10202;48.474;9.138;2023-04-25T01:05:45;5.47;;;2.75;;
20084;SDS011;10202;48.474;9.138;2023-04-25T01:08:15;4.05;;;2.92;;
20084;SDS011;10202;48.474;9.138;2023-04-25T01:10:46;3.70;;;2.83;;
20084;SDS011;10202;48.474;9.138;2023-04-25T01:13:16;5.55;;;3.22;;
20084;SDS011;10202;48.474;9.138;2023-04-25T01:15:42;5.65;;;3.28;;
20084;SDS011;10202;48.474;9.138;2023-04-25T01:18:08;6.45;;;2.90;;
20084;SDS011;10202;48.474;9.138;2023-04-25T01:20:37;6.25;;;3.00;;
20084;SDS011;10202;48.474;9.138;2023-04-25T01:23:09;7.00;;;3.13;;
20084;SDS011;10202;48.474;9.138;2023-04-25T01:25:40;4.78;;;3.05;;
20084;SDS011;10202;48.474;9.138;2023-04-25T01:28:10;4.40;;;2.63;;
20084;SDS011;10202;48.474;9.138;2023-04-25T01:30:41;3.90;;;2.83;;
20084;SDS011;10202;48.474;9.138;2023-04-25T01:33:08;7.95;;;2.80;;
20084;SDS011;10202;48.474;9.138;2023-04-25T01:35:34;3.92;;;2.70;;
20084;SDS011;10202;48.474;9.138;2023-04-25T01:38:03;4.15;;;2.88;;
20084;SDS011;10202;48.474;9.138;2023-04-25T01:40:28;7.00;;;3.25;;
20084;SDS011;10202;48.474;9.138;2023-04-25T01:42:56;4.50;;;2.85;;
20084;SDS011;10202;48.474;9.138;2023-04-25T01:45:21;6.38;;;3.05;;
20084;SDS011;10202;48.474;9.138;2023-04-25T01:47:52;7.55;;;3.00;;
20084;SDS011;10202;48.474;9.138;2023-04-25T01:50:24;3.53;;;2.80;;
20084;SDS011;10202;48.474;9.138;2023-04-25T01:52:52;3.45;;;2.83;;
20084;SDS011;10202;48.474;9.138;2023-04-25T01:55:21;8.15;;;3.20;;
20084;SDS011;10202;48.474;9.138;2023-04-25T01:58:03;6.40;;;2.80;;
20084;SDS011;10202;48.474;9.138;2023-04-25T02:01:02;5.75;;;2.78;;
20084;SDS011;10202;48.474;9.138;2023-04-25T02:03:40;3.65;;;2.60;;
20084;SDS011;10202;48.474;9.138;2023-04-25T02:06:12;5.13;;;2.55;;
20084;SDS011;10202;48.474;9.138;2023-04-25T02:08:41;4.75;;;2.45;;
20084;SDS011;10202;48.474;9.138;2023-04-25T02:11:10;3.40;;;2.50;;
20084;SDS011;10202;48.474;9.138;2023-04-25T02:13:42;3.38;;;2.42;;
20084;SDS011;10202;48.474;9.138;2023-04-25T02:16:31;3.05;;;2.35;;
20084;SDS011;10202;48.474;9.138;2023-04-25T02:19:01;4.85;;;2.55;;
20084;SDS011;10202;48.474;9.138;2023-04-25T02:21:31;5.68;;;2.30;;
20084;SDS011;10202;48.474;9.138;2023-04-25T02:24:00;5.57;;;2.50;;
20084;SDS011;10202;48.474;9.138;2023-04-25T02:26:33;4.75;;;2.42;;
20084;SDS011;10202;48.474;9.138;2023-04-25T02:29:01;7.10;;;2.67;;
20084;SDS011;10202;48.474;9.138;2023-04-25T02:31:32;5.43;;;2.53;;
20084;SDS011;10202;48.474;9.138;2023-04-25T02:34:00;3.78;;;2.65;;
20084;SDS011;10202;48.474;9.138;2023-04-25T02:36:26;3.88;;;2.60;;
20084;SDS011;10202;48.474;9.138;2023-04-25T02:38:59;3.47;;;2.55;;
20084;SDS011;10202;48.474;9.138;2023-04-25T02:41:28;4.75;;;2.63;;
20084;SDS011;10202;48.474;9.138;2023-04-25T02:43:54;6.47;;;2.88;;
20084;SDS011;10202;48.474;9.138;2023-04-25T02:46:20;5.75;;;2.38;;
20084;SDS011;10202;48.474;9.138;2023-04-25T02:48:50;4.32;;;2.30;;
20084;SDS011;10202;48.474;9.138;2023-04-25T02:51:16;3.92;;;2.63;;
20084;SDS011;10202;48.474;9.138;2023-04-25T02:53:42;3.40;;;2.30;;
20084;SDS011;10202;48.474;9.138;2023-04-25T02:56:12;5.78;;;2.70;;
20084;SDS011;10202;48.474;9.138;2023-04-25T02:58:37;5.35;;;2.60;;
20084;SDS011;10202;48.474;9.138;2023-04-25T03:01:05;5.90;;;2.67;;
20084;SDS011;10202;48.474;9.138;2023-04-25T03:03:33;4.47;;;2.50;;
20084;SDS011;10202;48.474;9.138;2023-04-25T03:06:03;4.65;;;2.60;;
20084;SDS011;10202;48.474;9.138;2023-04-25T03:08:32;4.10;;;2.15;;
20084;SDS011;10202;48.474;9.138;2023-04-25T03:11:04;6.78;;;2.70;;
20084;SDS011;10202;48.474;9.138;2023-04-25T03:13:29;7.15;;;2.30;;
20084;SDS011;10202;48.474;9.138;2023-04-25T03:15:56;4.80;;;2.10;;
20084;SDS011;10202;48.474;9.138;2023-04-25T03:18:21;3.58;;;2.17;;
20084;SDS011;10202;48.474;9.138;2023-04-25T03:20:50;2.13;;;1.90;;
20084;SDS011;10202;48.474;9.138;2023-04-25T03:23:16;7.32;;;2.60;;
20084;SDS011;10202;48.474;9.138;2023-04-25T03:25:46;5.05;;;2.33;;
20084;SDS011;10202;48.474;9.138;2023-04-25T03:28:15;3.25;;;2.25;;
20084;SDS011;10202;48.474;9.138;2023-04-25T03:30:47;4.68;;;2.17;;
20084;SDS011;10202;48.474;9.138;2023-04-25T03:33:15;3.78;;;2.50;;
20084;SDS011;10202;48.474;9.138;2023-04-25T03:35:42;5.55;;;2.50;;
20084;SDS011;10202;48.474;9.138;2023-04-25T03:38:11;4.10;;;2.47;;
20084;SDS011;10202;48.474;9.138;2023-04-25T03:40:42;2.83;;;2.45;;
20084;SDS011;10202;48.474;9.138;2023-04-25T03:43:16;4.85;;;2.50;;
20084;SDS011;10202;48.474;9.138;2023-04-25T03:45:48;2.65;;;2.17;;
20084;SDS011;10202;48.474;9.138;2023-04-25T03:48:19;3.22;;;2.40;;
20084;SDS011;10202;48.474;9.138;2023-04-25T03:50:51;4.07;;;2.25;;
20084;SDS011;10202;48.474;9.138;2023-04-25T03:53:20;3.20;;;2.22;;
20084;SDS011;10202;48.474;9.138;2023-04-25T03:56:06;3.22;;;2.15;;
20084;SDS011;10202;48.474;9.138;2023-04-25T03:58:40;4.40;;;2.05;;
20084;SDS011;10202;48.474;9.138;2023-04-25T04:01:07;4.43;;;2.17;;
20084;SDS011;10202;48.474;9.138;2023-04-25T04:03:39;6.68;;;2.08;;
20084;SDS011;10202;48.474;9.138;2023-04-25T04:06:05;5.70;;;2.55;;
20084;SDS011;10202;48.474;9.138;2023-04-25T04:08:34;3.00;;;2.13;;
20084;SDS011;10202;48.474;9.138;2023-04-25T04:11:01;3.22;;;2.20;;
20084;SDS011;10202;48.474;9.138;2023-04-25T04:13:27;3.58;;;2.08;;
20084;SDS011;10202;48.474;9.138;2023-04-25T04:15:54;4.45;;;2.63;;
20084;SDS011;10202;48.474;9.138;2023-04-25T04:18:21;4.32;;;2.00;;
20084;SDS011;10202;48.474;9.138;2023-04-25T04:20:51;5.82;;;2.40;;
20084;SDS011;10202;48.474;9.138;2023-04-25T04:23:17;3.53;;;2.20;;
20084;SDS011;10202;48.474;9.138;2023-04-25T04:25:43;6.05;;;2.22;;
20084;SDS011;10202;48.474;9.138;2023-04-25T04:28:30;5.72;;;2.22;;
20084;SDS011;10202;48.474;9.138;2023-04-25T04:31:19;3.55;;;2.22;;
20084;SDS011;10202;48.474;9.138;2023-04-25T04:33:48;4.80;;;2.30;;
20084;SDS011;10202;48.474;9.138;2023-04-25T04:36:19;5.55;;;2.20;;
20084;SDS011;10202;48.474;9.138;2023-04-25T04:38:49;2.92;;;2.15;;
20084;SDS011;10202;48.474;9.138;2023-04-25T04:41:30;3.80;;;1.95;;
20084;SDS011;10202;48.474;9.138;2023-04-25T04:44:15;2.53;;;2.08;;
20084;SDS011;10202;48.474;9.138;2023-04-25T04:47:04;4.70;;;2.35;;
20084;SDS011;10202;48.474;9.138;2023-04-25T04:49:51;4.70;;;1.85;;
20084;SDS011;10202;48.474;9.138;2023-04-25T04:52:29;3.47;;;2.30;;
20084;SDS011;10202;48.474;9.138;2023-04-25T04:55:19;4.82;;;2.67;;
20084;SDS011;10202;48.474;9.138;2023-04-25T04:58:05;5.88;;;2.92;;
20084;SDS011;10202;48.474;9.138;2023-04-25T05:00:47;7.90;;;3.17;;
20084;SDS011;10202;48.474;9.138;2023-04-25T05:03:33;8.45;;;3.00;;
20084;SDS011;10202;48.474;9.138;2023-04-25T05:06:19;3.53;;;2.70;;
20084;SDS011;10202;48.474;9.138;2023-04-25T05:09:14;5.22;;;2.92;;
20084;SDS011;10202;48.474;9.138;2023-04-25T05:11:58;4.68;;;2.63;;
20084;SDS011;10202;48.474;9.138;2023-04-25T05:14:59;6.63;;;2.83;;
20084;SDS011;10202;48.474;9.138;2023-04-25T05:17:49;6.85;;;3.67;;
20084;SDS011;10202;48.474;9.138;2023-04-25T05:20:35;5.03;;;3.55;;
20084;SDS011;10202;48.474;9.138;2023-04-25T05:23:06;5.32;;;3.17;;
20084;SDS011;10202;48.474;9.138;2023-04-25T05:25:51;4.95;;;3.10;;
20084;SDS011;10202;48.474;9.138;2023-04-25T05:28:37;6.80;;;2.80;;
20084;SDS011;10202;48.474;9.138;2023-04-25T05:31:21;7.50;;;2.78;;
20084;SDS011;10202;48.474;9.138;2023-04-25T05:33:58;10.40;;;2.95;;
20084;SDS011;10202;48.474;9.138;2023-04-25T05:36:38;9.32;;;3.00;;
20084;SDS011;10202;48.474;9.138;2023-04-25T05:39:03;4.38;;;2.70;;
20084;SDS011;10202;48.474;9.138;2023-04-25T05:41:55;7.13;;;2.78;;
20084;SDS011;10202;48.474;9.138;2023-04-25T05:44:44;5.43;;;2.50;;
20084;SDS011;10202;48.474;9.138;2023-04-25T05:47:33;7.15;;;2.50;;
20084;SDS011;10202;48.474;9.138;2023-04-25T05:50:09;4.57;;;2.80;;
20084;SDS011;10202;48.474;9.138;2023-04-25T05:52:48;5.28;;;2.72;;
20084;SDS011;10202;48.474;9.138;2023-04-25T05:55:25;5.43;;;2.78;;
20084;SDS011;10202;48.474;9.138;2023-04-25T05:57:54;5.47;;;2.78;;
20084;SDS011;10202;48.474;9.138;2023-04-25T06:00:21;4.60;;;2.75;;
20084;SDS011;10202;48.474;9.138;2023-04-25T06:02:49;7.28;;;3.10;;
20084;SDS011;10202;48.474;9.138;2023-04-25T06:05:18;4.88;;;2.75;;
20084;SDS011;10202;48.474;9.138;2023-04-25T06:07:47;6.93;;;3.30;;
20084;SDS011;10202;48.474;9.138;2023-04-25T06:10:22;5.10;;;2.97;;
20084;SDS011;10202;48.474;9.138;2023-04-25T06:12:50;6.95;;;3.35;;
20084;SDS011;10202;48.474;9.138;2023-04-25T06:15:18;5.07;;;2.78;;
20084;SDS011;10202;48.474;9.138;2023-04-25T06:17:46;5.50;;;2.95;;
20084;SDS011;10202;48.474;9.138;2023-04-25T06:20:11;4.30;;;2.65;;
20084;SDS011;10202;48.474;9.138;2023-04-25T06:22:38;4.75;;;2.50;;
20084;SDS011;10202;48.474;9.138;2023-04-25T06:25:07;3.35;;;2.45;;
20084;SDS011;10202;48.474;9.138;2023-04-25T06:27:35;4.88;;;2.85;;
20084;SDS011;10202;48.474;9.138;2023-04-25T06:30:07;3.75;;;2.42;;
20084;SDS011;10202;48.474;9.138;2023-04-25T06:32:39;4.72;;;2.33;;
20084;SDS011;10202;48.474;9.138;2023-04-25T06:35:07;7.35;;;2.30;;
20084;SDS011;10202;48.474;9.138;2023-04-25T06:37:39;3.45;;;2.20;;
20084;SDS011;10202;48.474;9.138;2023-04-25T06:40:04;3.53;;;2.15;;
20084;SDS011;10202;48.474;9.138;2023-04-25T06:42:34;3.55;;;2.22;;
20084;SDS011;10202;48.474;9.138;2023-04-25T06:45:21;1.98;;;1.75;;
20084;SDS011;10202;48.474;9.138;2023-04-25T06:47:47;2.70;;;2.10;;
20084;SDS011;10202;48.474;9.138;2023-04-25T06:50:13;4.65;;;2.28;;
20084;SDS011;10202;48.474;9.138;2023-04-25T06:52:43;4.05;;;2.03;;
20084;SDS011;10202;48.474;9.138;2023-04-25T06:55:11;5.68;;;2.60;;
20084;SDS011;10202;48.474;9.138;2023-04-25T06:57:58;2.13;;;1.80;;
20084;SDS011;10202;48.474;9.138;2023-04-25T07:00:59;3.50;;;2.30;;
20084;SDS011;10202;48.474;9.138;2023-04-25T07:03:28;3.30;;;2.40;;
20084;SDS011;10202;48.474;9.138;2023-04-25T07:05:58;3.72;;;2.63;;
20084;SDS011;10202;48.474;9.138;2023-04-25T07:08:30;3.08;;;2.42;;
20084;SDS011;10202;48.474;9.138;2023-04-25T07:10:58;4.05;;;2.30;;
20084;SDS011;10202;48.474;9.138;2023-04-25T07:13:29;2.72;;;2.10;;
20084;SDS011;10202;48.474;9.138;2023-04-25T07:15:55;3.42;;;2.22;;
20084;SDS011;10202;48.474;9.138;2023-04-25T07:18:21;5.90;;;2.53;;
20084;SDS011;10202;48.474;9.138;2023-04-25T07:20:57;2.72;;;2.20;;
20084;SDS011;10202;48.474;9.138;2023-04-25T07:23:22;6.32;;;2.47;;
20084;SDS011;10202;48.474;9.138;2023-04-25T07:25:49;5.28;;;2.08;;
20084;SDS011;10202;48.474;9.138;2023-04-25T07:28:23;2.75;;;2.08;;
20084;SDS011;10202;48.474;9.138;2023-04-25T07:30:53;2.90;;;1.73;;
20084;SDS011;10202;48.474;9.138;2023-04-25T07:33:24;3.08;;;2.00;;
20084;SDS011;10202;48.474;9.138;2023-04-25T07:35:54;2.75;;;1.95;;
20084;SDS011;10202;48.474;9.138;2023-04-25T07:38:28;2.53;;;2.00;;
20084;SDS011;10202;48.474;9.138;2023-04-25T07:40:54;4.60;;;2.40;;
20084;SDS011;10202;48.474;9.138;2023-04-25T07:43:26;3.17;;;1.98;;
20084;SDS011;10202;48.474;9.138;2023-04-25T07:45:58;3.40;;;2.30;;
20084;SDS011;10202;48.474;9.138;2023-04-25T07:48:28;7.03;;;2.05;;
20084;SDS011;10202;48.474;9.138;2023-04-25T07:50:56;5.45;;;1.92;;
20084;SDS011;10202;48.474;9.138;2023-04-25T07:53:24;3.55;;;1.60;;
20084;SDS011;10202;48.474;9.138;2023-04-25T07:55:53;3.10;;;1.80;;
20084;SDS011;10202;48.474;9.138;2023-04-25T07:58:20;2.65;;;1.90;;
20084;SDS011;10202;48.474;9.138;2023-04-25T08:00:49;3.05;;;2.10;;
20084;SDS011;10202;48.474;9.138;2023-04-25T08:03:41;5.75;;;2.40;;
20084;SDS011;10202;48.474;9.138;2023-04-25T08:06:17;3.50;;;2.53;;
20084;SDS011;10202;48.474;9.138;2023-04-25T08:09:14;3.92;;;2.25;;
20084;SDS011;10202;48.474;9.138;2023-04-25T08:11:45;4.32;;;2.08;;
20084;SDS011;10202;48.474;9.138;2023-04-25T08:14:15;2.55;;;2.25;;
20084;SDS011;10202;48.474;9.138;2023-04-25T08:16:44;8.48;;;2.70;;
20084;SDS011;10202;48.474;9.138;2023-04-25T08:19:12;3.58;;;2.35;;
20084;SDS011;10202;48.474;9.138;2023-04-25T08:21:40;3.75;;;2.40;;
20084;SDS011;10202;48.474;9.138;2023-04-25T08:24:11;5.40;;;2.70;;
20084;SDS011;10202;48.474;9.138;2023-04-25T08:26:38;3.17;;;2.60;;
20084;SDS011;10202;48.474;9.138;2023-04-25T08:29:09;3.83;;;2.33;;
20084;SDS011;10202;48.474;9.138;2023-04-25T08:31:40;3.95;;;2.35;;
20084;SDS011;10202;48.474;9.138;2023-04-25T08:34:09;4.53;;;2.70;;
20084;SDS011;10202;48.474;9.138;2023-04-25T08:36:42;7.15;;;2.47;;
20084;SDS011;10202;48.474;9.138;2023-04-25T08:39:33;3.20;;;2.38;;
20084;SDS011;10202;48.474;9.138;2023-04-25T08:42:17;6.60;;;2.90;;
20084;SDS011;10202;48.474;9.138;2023-04-25T08:44:45;5.75;;;2.75;;
20084;SDS011;10202;48.474;9.138;2023-04-25T08:47:17;6.43;;;2.80;;
20084;SDS011;10202;48.474;9.138;2023-04-25T08:49:55;3.47;;;2.53;;
20084;SDS011;10202;48.474;9.138;2023-04-25T08:52:23;5.93;;;3.00;;
20084;SDS011;10202;48.474;9.138;2023-04-25T08:54:51;5.18;;;3.13;;
20084;SDS011;10202;48.474;9.138;2023-04-25T08:57:18;5.05;;;3.10;;
20084;SDS011;10202;48.474;9.138;2023-04-25T08:59:48;4.55;;;3.40;;
20084;SDS011;10202;48.474;9.138;2023-04-25T09:02:16;3.05;;;2.75;;
20084;SDS011;10202;48.474;9.138;2023-04-25T09:04:48;4.05;;;2.85;;
20084;SDS011;10202;48.474;9.138;2023-04-25T09:07:14;3.97;;;2.60;;
20084;SDS011;10202;48.474;9.138;2023-04-25T09:09:46;3.05;;;2.20;;
20084;SDS011;10202;48.474;9.138;2023-04-25T09:12:15;3.55;;;2.38;;
20084;SDS011;10202;48.474;9.138;2023-04-25T09:15:00;1.95;;;1.75;;
20084;SDS011;10202;48.474;9.138;2023-04-25T09:17:54;2.33;;;1.90;;
20084;SDS011;10202;48.474;9.138;2023-04-25T09:20:32;3.47;;;1.63;;
20084;SDS011;10202;48.474;9.138;2023-04-25T09:23:10;3.92;;;1.65;;
20084;SDS011;10202;48.474;9.138;2023-04-25T09:25:37;2.20;;;1.60;;
20084;SDS011;10202;48.474;9.138;2023-04-25T09:28:09;1.20;;;1.10;;
20084;SDS011;10202;48.474;9.138;2023-04-25T09:30:41;11.80;;;4.68;;
20084;SDS011;10202;48.474;9.138;2023-04-25T09:33:19;1.23;;;1.00;;
20084;SDS011;10202;48.474;9.138;2023-04-25T09:35:49;1.20;;;1.10;;
20084;SDS011;10202;48.474;9.138;2023-04-25T09:38:46;1.00;;;0.90;;
20084;SDS011;10202;48.474;9.138;2023-04-25T09:41:31;0.75;;;0.75;;
20084;SDS011;10202;48.474;9.138;2023-04-25T09:44:03;1.23;;;1.13;;
20084;SDS011;10202;48.474;9.138;2023-04-25T09:46:37;4.38;;;1.23;;
20084;SDS011;10202;48.474;9.138;2023-04-25T09:49:08;2.15;;;1.00;;
20084;SDS011;10202;48.474;9.138;2023-04-25T09:51:55;0.95;;;0.80;;
20084;SDS011;10202;48.474;9.138;2023-04-25T09:54:25;1.10;;;1.00;;
20084;SDS011;10202;48.474;9.138;2023-04-25T09:57:01;4.65;;;1.00;;
20084;SDS011;10202;48.474;9.138;2023-04-25T09:59:36;2.92;;;1.92;;
20084;SDS011;10202;48.474;9.138;2023-04-25T10:02:12;2.72;;;1.95;;
20084;SDS011;10202;48.474;9.138;2023-04-25T10:04:50;2.17;;;1.98;;
20084;SDS011;10202;48.474;9.138;2023-04-25T10:07:24;1.98;;;1.70;;
20084;SDS011;10202;48.474;9.138;2023-04-25T10:09:58;2.20;;;2.00;;
20084;SDS011;10202;48.474;9.138;2023-04-25T10:12:31;3.03;;;2.38;;
20084;SDS011;10202;48.474;9.138;2023-04-25T10:15:00;2.50;;;2.22;;
20084;SDS011;10202;48.474;9.138;2023-04-25T10:17:28;2.10;;;1.90;;
20084;SDS011;10202;48.474;9.138;2023-04-25T10:19:56;1.80;;;1.70;;
20084;SDS011;10202;48.474;9.138;2023-04-25T10:25:09;2.33;;;1.40;;
20084;SDS011;10202;48.474;9.138;2023-04-25T10:27:35;1.85;;;1.65;;
20084;SDS011;10202;48.474;9.138;2023-04-25T10:32:37;2.33;;;1.40;;
20084;SDS011;10202;48.474;9.138;2023-04-25T10:35:12;1.48;;;1.38;;
20084;SDS011;10202;48.474;9.138;2023-04-25T10:37:38;1.38;;;1.27;;
20084;SDS011;10202;48.474;9.138;2023-04-25T10:40:24;1.20;;;1.10;;
20084;SDS011;10202;48.474;9.138;2023-04-25T10:42:53;0.95;;;0.88;;
20084;SDS011;10202;48.474;9.138;2023-04-25T10:45:26;0.77;;;0.75;;
20084;SDS011;10202;48.474;9.138;2023-04-25T10:47:52;0.60;;;0.60;;
20084;SDS011;10202;48.474;9.138;2023-04-25T10:50:22;0.82;;;0.75;;
20084;SDS011;10202;48.474;9.138;2023-04-25T10:53:15;0.60;;;0.60;;
20084;SDS011;10202;48.474;9.138;2023-04-25T10:55:51;0.70;;;0.70;;
20084;SDS011;10202;48.474;9.138;2023-04-25T10:58:21;1.15;;;0.73;;
20084;SDS011;10202;48.474;9.138;2023-04-25T11:00:49;0.60;;;0.60;;
20084;SDS011;10202;48.474;9.138;2023-04-25T11:03:21;2.03;;;0.75;;
20084;SDS011;10202;48.474;9.138;2023-04-25T11:05:49;2.17;;;1.33;;
20084;SDS011;10202;48.474;9.138;2023-04-25T11:08:20;2.25;;;1.20;;
20084;SDS011;10202;48.474;9.138;2023-04-25T11:11:17;8.82;;;4.18;;
20084;SDS011;10202;48.474;9.138;2023-04-25T11:13:44;1.13;;;1.02;;
20084;SDS011;10202;48.474;9.138;2023-04-25T11:16:20;1.05;;;0.70;;
20084;SDS011;10202;48.474;9.138;2023-04-25T11:18:52;0.98;;;0.95;;
20084;SDS011;10202;48.474;9.138;2023-04-25T11:21:19;1.33;;;0.70;;
20084;SDS011;10202;48.474;9.138;2023-04-25T11:23:48;3.42;;;1.20;;
20084;SDS011;10202;48.474;9.138;2023-04-25T11:26:13;0.50;;;0.50;;
20084;SDS011;10202;48.474;9.138;2023-04-25T11:28:40;0.60;;;0.60;;
20084;SDS011;10202;48.474;9.138;2023-04-25T11:31:10;0.60;;;0.60;;
20084;SDS011;10202;48.474;9.138;2023-04-25T11:33:40;0.52;;;0.52;;
20084;SDS011;10202;48.474;9.138;2023-04-25T11:36:10;1.13;;;1.05;;
20084;SDS011;10202;48.474;9.138;2023-04-25T11:38:38;0.80;;;0.80;;
20084;SDS011;10202;48.474;9.138;2023-04-25T11:41:05;0.60;;;0.60;;
20084;SDS011;10202;48.474;9.138;2023-04-25T11:43:37;0.95;;;0.85;;
20084;SDS011;10202;48.474;9.138;2023-04-25T11:46:06;1.30;;;1.15;;
20084;SDS011;10202;48.474;9.138;2023-04-25T11:48:39;1.35;;;1.08;;
20084;SDS011;10202;48.474;9.138;2023-04-25T11:51:08;0.70;;;0.70;;
20084;SDS011;10202;48.474;9.138;2023-04-25T11:53:35;1.35;;;0.80;;
20084;SDS011;10202;48.474;9.138;2023-04-25T11:56:04;0.85;;;0.85;;
20084;SDS011;10202;48.474;9.138;2023-04-25T11:58:53;0.95;;;0.90;;
20084;SDS011;10202;48.474;9.138;2023-04-25T12:01:35;0.80;;;0.80;;
20084;SDS011;10202;48.474;9.138;2023-04-25T12:04:16;0.90;;;0.80;;
20084;SDS011;10202;48.474;9.138;2023-04-25T12:06:55;1.02;;;0.70;;
20084;SDS011;10202;48.474;9.138;2023-04-25T12:09:30;0.63;;;0.63;;
20084;SDS011;10202;48.474;9.138;2023-04-25T12:12:01;0.75;;;0.75;;
20084;SDS011;10202;48.474;9.138;2023-04-25T12:14:34;1.38;;;1.20;;
20084;SDS011;10202;48.474;9.138;2023-04-25T12:17:03;1.77;;;1.20;;
20084;SDS011;10202;48.474;9.138;2023-04-25T12:19:36;2.58;;;1.70;;
20084;SDS011;10202;48.474;9.138;2023-04-25T12:22:18;1.40;;;1.25;;
20084;SDS011;10202;48.474;9.138;2023-04-25T12:24:48;1.42;;;1.17;;
20084;SDS011;10202;48.474;9.138;2023-04-25T12:27:18;1.38;;;1.15;;
20084;SDS011;10202;48.474;9.138;2023-04-25T12:29:52;1.00;;;1.00;;
20084;SDS011;10202;48.474;9.138;2023-04-25T12:32:29;0.90;;;0.90;;
20084;SDS011;10202;48.474;9.138;2023-04-25T12:34:57;1.25;;;0.80;;
20084;SDS011;10202;48.474;9.138;2023-04-25T12:37:28;0.80;;;0.80;;
20084;SDS011;10202;48.474;9.138;2023-04-25T12:39:53;0.80;;;0.80;;
20084;SDS011;10202;48.474;9.138;2023-04-25T12:42:19;0.93;;;0.88;;
20084;SDS011;10202;48.474;9.138;2023-04-25T12:44:45;1.00;;;0.82;;
20084;SDS011;10202;48.474;9.138;2023-04-25T12:47:11;3.90;;;1.10;;
20084;SDS011;10202;48.474;9.138;2023-04-25T12:49:37;1.20;;;0.93;;
20084;SDS011;10202;48.474;9.138;2023-04-25T12:52:03;3.20;;;1.67;;
20084;SDS011;10202;48.474;9.138;2023-04-25T12:54:28;1.00;;;1.00;;
20084;SDS011;10202;48.474;9.138;2023-04-25T12:56:54;1.20;;;1.10;;
20084;SDS011;10202;48.474;9.138;2023-04-25T12:59:22;3.08;;;1.50;;
20084;SDS011;10202;48.474;9.138;2023-04-25T13:01:48;3.08;;;1.40;;
20084;SDS011;10202;48.474;9.138;2023-04-25T13:04:21;1.50;;;1.20;;
20084;SDS011;10202;48.474;9.138;2023-04-25T13:06:49;1.30;;;1.17;;
20084;SDS011;10202;48.474;9.138;2023-04-25T13:09:14;0.80;;;0.80;;
20084;SDS011;10202;48.474;9.138;2023-04-25T13:11:42;0.90;;;0.90;;
20084;SDS011;10202;48.474;9.138;2023-04-25T13:14:13;3.20;;;1.48;;
20084;SDS011;10202;48.474;9.138;2023-04-25T13:16:38;0.98;;;0.98;;
20084;SDS011;10202;48.474;9.138;2023-04-25T13:19:11;1.25;;;1.15;;
20084;SDS011;10202;48.474;9.138;2023-04-25T13:21:39;0.80;;;0.80;;
20084;SDS011;10202;48.474;9.138;2023-04-25T13:24:09;1.10;;;1.00;;
20084;SDS011;10202;48.474;9.138;2023-04-25T13:26:34;1.25;;;1.15;;
20084;SDS011;10202;48.474;9.138;2023-04-25T13:29:05;1.55;;;1.30;;
20084;SDS011;10202;48.474;9.138;2023-04-25T13:31:31;0.83;;;0.80;;
20084;SDS011;10202;48.474;9.138;2023-04-25T13:33:59;1.00;;;0.90;;
20084;SDS011;10202;48.474;9.138;2023-04-25T13:36:25;0.90;;;0.90;;
20084;SDS011;10202;48.474;9.138;2023-04-25T13:38:53;1.00;;;1.00;;
20084;SDS011;10202;48.474;9.138;2023-04-25T13:41:20;1.30;;;1.20;;
20084;SDS011;10202;48.474;9.138;2023-04-25T13:43:49;1.10;;;1.00;;
20084;SDS011;10202;48.474;9.138;2023-04-25T13:46:15;6.82;;;1.40;;
20084;SDS011;10202;48.474;9.138;2023-04-25T13:48:43;1.50;;;1.38;;
20084;SDS011;10202;48.474;9.138;2023-04-25T13:51:14;2.42;;;1.95;;
20084;SDS011;10202;48.474;9.138;2023-04-25T13:53:41;3.47;;;2.40;;
20084;SDS011;10202;48.474;9.138;2023-04-25T13:56:10;2.63;;;1.88;;
20084;SDS011;10202;48.474;9.138;2023-04-25T13:58:37;1.80;;;1.50;;
20084;SDS011;10202;48.474;9.138;2023-04-25T14:01:05;2.08;;;1.60;;
20084;SDS011;10202;48.474;9.138;2023-04-25T14:03:31;2.05;;;1.90;;
20084;SDS011;10202;48.474;9.138;2023-04-25T14:05:58;2.30;;;2.10;;
20084;SDS011;10202;48.474;9.138;2023-04-25T14:08:24;1.77;;;1.67;;
20084;SDS011;10202;48.474;9.138;2023-04-25T14:10:52;1.55;;;1.45;;
20084;SDS011;10202;48.474;9.138;2023-04-25T14:13:22;2.55;;;1.92;;
20084;SDS011;10202;48.474;9.138;2023-04-25T14:15:49;2.22;;;2.00;;
20084;SDS011;10202;48.474;9.138;2023-04-25T14:18:15;1.88;;;1.77;;
20084;SDS011;10202;48.474;9.138;2023-04-25T14:20:47;2.85;;;1.83;;
20084;SDS011;10202;48.474;9.138;2023-04-25T14:23:13;2.67;;;2.22;;
20084;SDS011;10202;48.474;9.138;2023-04-25T14:25:45;2.88;;;2.30;;
20084;SDS011;10202;48.474;9.138;2023-04-25T14:28:13;2.35;;;2.08;;
20084;SDS011;10202;48.474;9.138;2023-04-25T14:30:41;2.58;;;2.38;;
20084;SDS011;10202;48.474;9.138;2023-04-25T14:33:10;3.28;;;2.90;;
20084;SDS011;10202;48.474;9.138;2023-04-25T14:35:38;2.78;;;2.20;;
20084;SDS011;10202;48.474;9.138;2023-04-25T14:38:07;3.30;;;2.50;;
20084;SDS011;10202;48.474;9.138;2023-04-25T14:40:37;3.55;;;2.30;;
20084;SDS011;10202;48.474;9.138;2023-04-25T14:43:06;6.75;;;3.03;;
20084;SDS011;10202;48.474;9.138;2023-04-25T14:45:33;2.45;;;2.25;;
20084;SDS011;10202;48.474;9.138;2023-04-25T14:48:01;3.60;;;2.10;;
20084;SDS011;10202;48.474;9.138;2023-04-25T14:50:29;2.53;;;2.33;;
20084;SDS011;10202;48.474;9.138;2023-04-25T14:52:55;2.85;;;2.47;;
20084;SDS011;10202;48.474;9.138;2023-04-25T14:55:24;3.85;;;2.80;;
20084;SDS011;10202;48.474;9.138;2023-04-25T14:57:49;5.70;;;2.90;;
20084;SDS011;10202;48.474;9.138;2023-04-25T15:00:18;5.93;;;2.75;;
20084;SDS011;10202;48.474;9.138;2023-04-25T15:02:50;5.45;;;3.05;;
20084;SDS011;10202;48.474;9.138;2023-04-25T15:05:18;5.57;;;3.33;;
20084;SDS011;10202;48.474;9.138;2023-04-25T15:07:46;8.85;;;3.28;;
20084;SDS011;10202;48.474;9.138;2023-04-25T15:10:12;6.82;;;3.25;;
20084;SDS011;10202;48.474;9.138;2023-04-25T15:12:43;4.38;;;3.85;;
20084;SDS011;10202;48.474;9.138;2023-04-25T15:15:09;5.55;;;3.67;;
20084;SDS011;10202;48.474;9.138;2023-04-25T15:17:43;4.45;;;3.58;;
20084;SDS011;10202;48.474;9.138;2023-04-25T15:20:09;5.35;;;4.47;;